createdAt,value
2018-12-23T00:01:37.391Z,"    0"
2018-12-23T00:06:33.928Z,"    0"
2018-12-23T00:11:29.845Z,"    0"
2018-12-23T00:16:25.681Z,"    0"
2018-12-23T00:21:21.594Z,"    0"
2018-12-23T00:26:17.329Z,"    0"
2018-12-23T00:31:14.127Z,"    0"
2018-12-23T00:36:09.673Z,"    0"
2018-12-23T00:41:06.210Z,"    0"
2018-12-23T00:46:01.652Z,"    0"
2018-12-23T00:50:58.513Z,"    0"
2018-12-23T00:55:54.328Z,"    0"
2018-12-23T01:00:51.063Z,"    0"
2018-12-23T01:05:47.536Z,"    0"
2018-12-23T01:10:44.081Z,"    0"
2018-12-23T01:15:39.424Z,"    0"
2018-12-23T01:20:35.348Z,"    0"
2018-12-23T01:25:31.439Z,"    0"
2018-12-23T01:30:27.563Z,"    0"
2018-12-23T01:35:23.247Z,"    0"
2018-12-23T01:40:18.547Z,"    0"
2018-12-23T01:45:14.336Z,"    0"
2018-12-23T01:50:10.332Z,"    0"
2018-12-23T01:55:05.677Z,"    0"
2018-12-23T02:00:01.586Z,"    0"
2018-12-23T02:04:57.097Z,"    0"
2018-12-23T02:09:53.013Z,"    0"
2018-12-23T02:14:48.861Z,"    0"
2018-12-23T02:19:45.653Z,"    0"
2018-12-23T02:24:42.051Z,"    0"
2018-12-23T02:29:37.674Z,"    0"
2018-12-23T02:34:33.055Z,"    0"
2018-12-23T02:39:29.435Z,"    0"
2018-12-23T02:44:25.619Z,"    0"
2018-12-23T02:49:21.369Z,"    0"
2018-12-23T02:54:17.120Z,"    0"
2018-12-23T02:59:13.309Z,"    0"
2018-12-23T03:04:09.889Z,"    0"
2018-12-23T03:09:05.819Z,"    0"
2018-12-23T03:14:02.551Z,"    0"
2018-12-23T03:18:57.839Z,"    0"
2018-12-23T03:23:53.706Z,"    0"
2018-12-23T03:28:50.409Z,"    0"
2018-12-23T03:33:45.896Z,"    0"
2018-12-23T03:38:42.301Z,"    0"
2018-12-23T03:43:37.221Z,"    0"
2018-12-23T03:48:33.977Z,"    0"
2018-12-23T03:53:29.543Z,"    0"
2018-12-23T03:58:25.121Z,"    0"
2018-12-23T04:03:22.217Z,"    0"
2018-12-23T04:08:17.527Z,"    0"
2018-12-23T04:13:14.192Z,"    0"
2018-12-23T04:18:09.694Z,"    0"
2018-12-23T04:23:06.414Z,"    0"
2018-12-23T04:28:01.761Z,"    0"
2018-12-23T04:32:57.988Z,"    0"
2018-12-23T04:37:53.636Z,"    0"
2018-12-23T04:42:49.455Z,"    0"
2018-12-23T04:47:45.063Z,"    0"
2018-12-23T04:52:40.545Z,"    0"
2018-12-23T04:57:36.570Z,"    0"
2018-12-23T05:02:33.125Z,"    0"
2018-12-23T05:07:29.871Z,"    0"
2018-12-23T05:12:26.095Z,"    0"
2018-12-23T05:17:22.120Z,"    0"
2018-12-23T05:22:17.884Z,"    0"
2018-12-23T05:27:13.915Z,"    0"
2018-12-23T05:32:10.532Z,"    0"
2018-12-23T05:37:06.446Z,"    0"
2018-12-23T05:42:02.294Z,"    0"
2018-12-23T05:46:59.155Z,"    0"
2018-12-23T05:51:54.672Z,"    0"
2018-12-23T05:56:50.736Z,"    0"
2018-12-23T06:01:46.508Z,"    0"
2018-12-23T06:06:43.097Z,"    0"
2018-12-23T06:11:39.994Z,"    0"
2018-12-23T06:16:35.619Z,"    0"
2018-12-23T06:21:31.426Z,"    0"
2018-12-23T06:26:28.108Z,"    0"
2018-12-23T06:31:24.541Z,"    0"
2018-12-23T06:36:19.845Z,"    0"
2018-12-23T06:41:16.528Z,"    0"
2018-12-23T06:46:12.071Z,"    0"
2018-12-23T06:51:08.018Z,"    0"
2018-12-23T06:56:04.830Z,"    0"
2018-12-23T07:01:00.114Z,"    0"
2018-12-23T07:05:55.758Z,"    0"
2018-12-23T07:10:52.509Z,"    0"
2018-12-23T07:15:48.604Z,"    0"
2018-12-23T07:20:44.222Z,"    0"
2018-12-23T07:25:40.767Z,"    0"
2018-12-23T07:30:36.395Z,"    0"
2018-12-23T07:35:32.958Z,"    0"
2018-12-23T07:40:28.775Z,"    0"
2018-12-23T07:45:24.638Z,"    0"
2018-12-23T07:50:20.372Z,"    0"
2018-12-23T07:55:17.498Z,"    5"
2018-12-23T08:00:13.018Z,"    5"
2018-12-23T08:05:09.821Z,"    5"
2018-12-23T08:10:06.102Z,"   10"
2018-12-23T08:15:02.653Z,"    5"
2018-12-23T08:19:57.815Z,"   10"
2018-12-23T08:24:54.527Z,"   15"
2018-12-23T08:29:50.596Z,"   20"
2018-12-23T08:34:46.657Z,"   15"
2018-12-23T08:39:42.303Z,"   10"
2018-12-23T08:44:37.968Z,"   15"
2018-12-23T08:49:34.793Z,"   15"
2018-12-23T08:54:31.447Z,"   20"
2018-12-23T08:59:27.869Z,"   25"
2018-12-23T09:04:23.421Z,"   15"
2018-12-23T09:09:20.054Z,"   20"
2018-12-23T09:14:15.349Z,"   25"
2018-12-23T09:19:11.323Z,"   20"
2018-12-23T09:24:07.101Z,"   20"
2018-12-23T09:29:02.678Z,"   25"
2018-12-23T09:33:58.810Z,"   20"
2018-12-23T09:38:55.427Z,"   35"
2018-12-23T09:43:51.626Z,"   25"
2018-12-23T09:48:47.192Z,"   40"
2018-12-23T09:53:42.810Z,"   40"
2018-12-23T09:58:39.692Z,"   40"
2018-12-23T10:03:35.069Z,"   25"
2018-12-23T10:08:31.021Z,"   20"
2018-12-23T10:13:27.746Z,"   30"
2018-12-23T10:18:24.507Z,"   15"
2018-12-23T10:23:20.752Z,"   30"
2018-12-23T10:28:16.218Z,"   35"
2018-12-23T10:33:12.958Z,"   25"
2018-12-23T10:38:09.135Z,"   40"
2018-12-23T10:43:05.142Z,"   30"
2018-12-23T10:48:00.901Z,"   30"
2018-12-23T10:52:56.641Z,"   25"
2018-12-23T10:57:52.366Z,"   35"
2018-12-23T11:02:49.108Z,"   25"
2018-12-23T11:07:44.433Z,"   35"
2018-12-23T11:12:41.007Z,"   35"
2018-12-23T11:17:37.732Z,"   55"
2018-12-23T11:22:33.494Z,"   50"
2018-12-23T11:27:30.264Z,"   25"
2018-12-23T11:32:26.789Z,"   30"
2018-12-23T11:37:22.544Z,"   50"
2018-12-23T11:42:18.303Z,"   45"
2018-12-23T11:47:14.128Z,"   45"
2018-12-23T11:52:10.015Z,"   45"
2018-12-23T11:57:05.646Z,"   50"
2018-12-23T12:02:01.689Z,"   45"
2018-12-23T12:06:57.449Z,"   40"
2018-12-23T12:11:54.228Z,"   35"
2018-12-23T12:16:50.068Z,"   35"
2018-12-23T12:21:47.204Z,"   35"
2018-12-23T12:26:42.934Z,"   35"
2018-12-23T12:31:38.567Z,"   30"
2018-12-23T12:36:34.104Z,"   30"
2018-12-23T12:41:31.181Z,"   35"
2018-12-23T12:46:27.760Z,"   35"
2018-12-23T12:51:23.291Z,"   35"
2018-12-23T12:56:18.976Z,"   30"
2018-12-23T13:01:15.641Z,"   25"
2018-12-23T13:06:13.199Z,"   25"
2018-12-23T13:11:08.793Z,"   20"
2018-12-23T13:16:05.543Z,"   15"
2018-12-23T13:21:01.047Z,"   20"
2018-12-23T13:25:56.827Z,"   20"
2018-12-23T13:30:52.539Z,"   20"
2018-12-23T13:35:48.272Z,"   20"
2018-12-23T13:40:43.708Z,"   25"
2018-12-23T13:45:39.609Z,"   20"
2018-12-23T13:50:35.975Z,"   15"
2018-12-23T13:55:32.306Z,"   10"
2018-12-23T14:00:29.176Z,"   10"
2018-12-23T14:05:25.297Z,"    5"
2018-12-23T14:10:22.040Z,"    5"
2018-12-23T14:15:18.715Z,"    5"
2018-12-23T14:20:15.152Z,"    5"
2018-12-23T14:25:11.328Z,"    5"
2018-12-23T14:30:07.730Z,"    5"
2018-12-23T14:35:04.290Z,"    5"
2018-12-23T14:39:59.813Z,"    5"
2018-12-23T14:44:55.430Z,"    0"
2018-12-23T14:49:51.108Z,"    0"
2018-12-23T14:54:47.682Z,"    0"
2018-12-23T14:59:43.102Z,"    0"
2018-12-23T15:04:39.189Z,"    0"
2018-12-23T15:09:35.302Z,"    0"
2018-12-23T15:14:31.629Z,"    0"
2018-12-23T15:19:28.030Z,"    0"
2018-12-23T15:24:24.475Z,"    0"
2018-12-23T15:29:20.137Z,"    0"
2018-12-23T15:34:16.808Z,"    0"
2018-12-23T15:39:12.243Z,"    0"
2018-12-23T15:44:07.735Z,"    0"
2018-12-23T15:49:03.317Z,"    0"
2018-12-23T15:53:59.024Z,"    0"
2018-12-23T15:58:56.174Z,"    0"
2018-12-23T16:03:51.613Z,"    0"
2018-12-23T16:08:47.534Z,"    0"
2018-12-23T16:13:43.366Z,"    0"
2018-12-23T16:18:40.188Z,"    0"
2018-12-23T16:23:35.921Z,"    0"
2018-12-23T16:28:32.560Z,"    0"
2018-12-23T16:33:29.064Z,"    0"
2018-12-23T16:38:24.634Z,"    0"
2018-12-23T16:43:21.273Z,"    0"
2018-12-23T16:48:17.292Z,"    0"
2018-12-23T16:53:13.002Z,"    0"
2018-12-23T16:58:08.669Z,"    0"
2018-12-23T17:03:04.636Z,"    0"
2018-12-23T17:08:00.968Z,"    0"
2018-12-23T17:12:56.682Z,"    0"
2018-12-23T17:17:52.154Z,"    0"
2018-12-23T17:22:48.060Z,"    0"
2018-12-23T17:27:43.922Z,"    0"
2018-12-23T17:32:39.673Z,"    0"
2018-12-23T17:37:36.413Z,"    0"
2018-12-23T17:42:31.881Z,"    0"
2018-12-23T17:47:28.455Z,"    0"
2018-12-23T17:52:23.905Z,"    0"
2018-12-23T17:57:21.430Z,"    0"
2018-12-23T18:02:18.276Z,"    0"
2018-12-23T18:07:13.689Z,"    0"
2018-12-23T18:12:09.304Z,"    0"
2018-12-23T18:17:05.003Z,"    0"
2018-12-23T18:22:00.678Z,"    0"
2018-12-23T18:26:56.402Z,"    0"
2018-12-23T18:31:53.195Z,"    0"
2018-12-23T18:36:48.774Z,"    0"
2018-12-23T18:41:44.519Z,"    0"
2018-12-23T18:46:39.985Z,"    0"
2018-12-23T18:51:35.701Z,"    0"
2018-12-23T18:56:31.578Z,"    0"
2018-12-23T19:01:27.102Z,"    0"
2018-12-23T19:06:23.879Z,"    0"
2018-12-23T19:11:20.222Z,"    0"
2018-12-23T19:16:15.760Z,"    0"
2018-12-23T19:21:11.601Z,"    0"
2018-12-23T19:26:08.027Z,"    0"
2018-12-23T19:31:04.816Z,"    0"
2018-12-23T19:36:00.286Z,"    0"
2018-12-23T19:40:56.026Z,"    0"
2018-12-23T19:45:51.866Z,"    0"
2018-12-23T19:50:47.584Z,"    0"
2018-12-23T19:55:43.069Z,"    0"
2018-12-23T20:00:39.076Z,"    0"
2018-12-23T20:05:34.774Z,"    0"
2018-12-23T20:10:30.400Z,"    0"
2018-12-23T20:15:26.191Z,"    0"
2018-12-23T20:20:22.602Z,"    0"
2018-12-23T20:25:18.101Z,"    0"
2018-12-23T20:30:13.997Z,"    0"
2018-12-23T20:35:09.646Z,"    0"
2018-12-23T20:40:05.608Z,"    0"
2018-12-23T20:45:01.089Z,"    0"
2018-12-23T20:49:57.208Z,"    0"
2018-12-23T20:54:53.030Z,"    0"
2018-12-23T20:59:48.886Z,"    0"
2018-12-23T21:04:45.662Z,"    0"
2018-12-23T21:09:41.684Z,"    0"
2018-12-23T21:14:37.246Z,"    0"
2018-12-23T21:19:32.793Z,"    0"
2018-12-23T21:24:28.463Z,"    0"
2018-12-23T21:29:24.475Z,"    0"
2018-12-23T21:34:20.343Z,"    0"
2018-12-23T21:39:16.962Z,"    0"
2018-12-23T21:44:13.356Z,"    0"
2018-12-23T21:49:08.911Z,"    0"
2018-12-23T21:54:04.503Z,"    0"
2018-12-23T21:59:01.176Z,"    0"
2018-12-23T22:03:56.823Z,"    0"
2018-12-23T22:08:52.158Z,"    0"
2018-12-23T22:13:48.135Z,"    0"
2018-12-23T22:18:43.847Z,"    0"
2018-12-23T22:23:39.501Z,"    0"
2018-12-23T22:28:35.199Z,"    0"
2018-12-23T22:33:30.939Z,"    0"
2018-12-23T22:38:26.578Z,"    0"
2018-12-23T22:43:22.224Z,"    0"
2018-12-23T22:48:18.849Z,"    0"
2018-12-23T22:53:14.395Z,"    0"
2018-12-23T22:58:10.253Z,"    0"
2018-12-23T23:03:09.199Z,"    0"
2018-12-23T23:08:04.255Z,"    0"
2018-12-23T23:12:59.684Z,"    0"
2018-12-23T23:17:56.374Z,"    0"
2018-12-23T23:22:52.899Z,"    0"
2018-12-23T23:27:48.130Z,"    0"
2018-12-23T23:32:43.877Z,"    0"
2018-12-23T23:37:39.488Z,"    0"
2018-12-23T23:42:35.088Z,"    0"
2018-12-23T23:47:31.564Z,"    0"
2018-12-23T23:52:27.559Z,"    0"
2018-12-23T23:57:23.267Z,"    0"
